Time;durP1;ratioP1;P1;durP2;ratioP2;P2;SDS_P1;SDS_P2;PMS_P1;PMS_P2;Temp;Humidity;BMP_temperature;BMP_pressure;BME280_temperature;BME280_humidity;BME280_pressure;Samples;Min_cycle;Max_cycle;Signal;HPM_P1;HPM_P2
2022/09/22 00:00:43;;;;;;;8.02;6.80;;;;;;;8.45;100.00;93316.66;5119130;28;20051;-71
2022/09/22 00:03:09;;;;;;;7.35;5.80;;;;;;;8.48;100.00;93318.06;5129644;28;21087;-71
2022/09/22 00:05:36;;;;;;;10.82;7.00;;;;;;;8.50;100.00;93319.44;5129919;28;20108;-71
2022/09/22 00:08:04;;;;;;;6.78;5.78;;;;;;;8.41;100.00;93310.34;5129939;28;20040;-71
2022/09/22 00:10:31;;;;;;;7.50;6.30;;;;;;;8.49;100.00;93315.31;5129646;28;20039;-71
2022/09/22 00:12:58;;;;;;;10.27;7.38;;;;;;;8.48;100.00;93313.72;5129971;28;20084;-71
2022/09/22 00:15:24;;;;;;;7.75;6.43;;;;;;;8.51;100.00;93315.91;5129498;28;20043;-71
2022/09/22 00:17:51;;;;;;;7.68;6.72;;;;;;;8.53;100.00;93316.50;5129835;28;20551;-71
2022/09/22 00:20:18;;;;;;;8.18;6.25;;;;;;;8.55;100.00;93306.88;5116265;28;20043;-70
2022/09/22 00:22:48;;;;;;;7.40;6.43;;;;;;;8.62;100.00;93308.66;5109163;28;20101;-70
2022/09/22 00:25:17;;;;;;;6.50;5.80;;;;;;;8.65;100.00;93313.38;5121114;28;20050;-70
2022/09/22 00:27:44;;;;;;;7.47;6.03;;;;;;;8.68;100.00;93305.31;5129134;28;20058;-70
2022/09/22 00:30:11;;;;;;;8.50;5.70;;;;;;;8.68;100.00;93307.88;5129642;28;20047;-70
2022/09/22 00:32:39;;;;;;;7.13;6.03;;;;;;;8.59;100.00;93297.03;5129687;28;20656;-70
2022/09/22 00:35:07;;;;;;;8.15;6.60;;;;;;;8.63;100.00;93305.09;5129513;28;20043;-70
2022/09/22 00:37:33;;;;;;;7.68;6.05;;;;;;;8.65;100.00;93310.81;5129376;28;20047;-70
2022/09/22 00:40:00;;;;;;;8.68;6.53;;;;;;;8.62;100.00;93304.34;5129648;28;20553;-70
2022/09/22 00:42:28;;;;;;;10.40;6.65;;;;;;;8.59;100.00;93307.28;5132855;27;20054;-70
2022/09/22 00:44:55;;;;;;;7.80;6.30;;;;;;;8.57;100.00;93305.88;5133295;27;20039;-70
2022/09/22 00:47:30;;;;;;;7.43;6.13;;;;;;;8.54;100.00;93304.50;5133120;27;20083;-70
2022/09/22 00:50:02;;;;;;;7.90;6.70;;;;;;;8.49;100.00;93301.72;5133310;27;20444;-70
2022/09/22 00:52:33;;;;;;;7.50;6.72;;;;;;;8.46;100.00;93305.44;5133041;27;20469;-71
2022/09/22 00:55:03;;;;;;;9.23;6.32;;;;;;;8.47;100.00;93301.13;5132920;27;20043;-71
2022/09/22 00:57:33;;;;;;;9.93;6.53;;;;;;;8.43;100.00;93298.94;5133075;27;20082;-70
2022/09/22 01:00:04;;;;;;;6.72;5.70;;;;;;;8.38;100.00;93301.28;5132759;27;20092;-71
2022/09/22 01:02:31;;;;;;;6.70;5.65;;;;;;;8.33;100.00;93292.63;5132408;27;20055;-71
2022/09/22 01:04:58;;;;;;;7.40;5.93;;;;;;;8.28;100.00;93286.31;5132898;27;20050;-71
2022/09/22 01:07:28;;;;;;;6.30;5.53;;;;;;;8.22;100.00;93289.66;5132772;27;20043;-71
2022/09/22 01:09:56;;;;;;;6.40;5.70;;;;;;;8.17;100.00;93299.66;5132837;27;20047;-71
2022/09/22 01:12:25;;;;;;;6.93;5.35;;;;;;;8.11;100.00;93285.84;5132800;27;20088;-71
2022/09/22 01:15:17;;;;;;;5.80;5.20;;;;;;;8.07;100.00;93297.47;5132350;27;20495;-71
2022/09/22 01:18:01;;;;;;;5.93;5.25;;;;;;;8.01;100.00;93291.34;5132434;27;20170;-71
2022/09/22 01:20:56;;;;;;;6.45;5.68;;;;;;;7.96;100.00;93292.91;5118063;27;20055;-71
2022/09/22 01:24:01;;;;;;;7.75;6.18;;;;;;;7.86;100.00;93286.38;5132950;27;20047;-71
2022/09/22 01:27:06;;;;;;;7.18;6.05;;;;;;;7.78;100.00;93290.84;5132700;27;20075;-71
2022/09/22 01:30:00;;;;;;;9.05;6.47;;;;;;;7.71;100.00;93286.50;5090275;27;20380;-71
2022/09/22 01:32:31;;;;;;;8.43;6.57;;;;;;;7.68;100.00;93278.44;5132442;27;20055;-71
2022/09/22 01:35:07;;;;;;;7.57;5.90;;;;;;;7.66;100.00;93281.16;5132535;27;21007;-71
2022/09/22 01:37:43;;;;;;;7.50;5.93;;;;;;;7.61;100.00;93281.75;5132314;27;20047;-71
2022/09/22 01:40:17;;;;;;;6.90;5.30;;;;;;;7.51;100.00;93280.50;5131999;27;20035;-71
2022/09/22 01:42:49;;;;;;;9.43;6.03;;;;;;;7.42;100.00;93277.31;5132462;27;20092;-71
2022/09/22 01:45:19;;;;;;;8.32;5.68;;;;;;;7.35;100.00;93275.50;5132279;27;20142;-71
2022/09/22 01:47:53;;;;;;;5.97;5.05;;;;;;;7.25;100.00;93272.50;5132069;27;20542;-71
2022/09/22 01:50:25;;;;;;;6.72;5.57;;;;;;;7.19;100.00;93278.34;5132371;27;20078;-71
2022/09/22 01:52:55;;;;;;;8.88;6.03;;;;;;;7.12;100.00;93272.41;5130866;27;20461;-71
2022/09/22 01:55:25;;;;;;;9.15;6.93;;;;;;;7.07;100.00;93275.50;5131960;27;20044;-71
2022/09/22 01:57:57;;;;;;;9.48;6.03;;;;;;;7.04;100.00;93269.00;5131802;27;20108;-71
2022/09/22 02:00:24;;;;;;;6.97;5.88;;;;;;;6.75;100.00;93237.56;5132123;27;20082;-71
2022/09/22 02:02:58;;;;;;;7.82;6.25;;;;;;;6.92;100.00;93265.41;5131823;27;20518;-71
2022/09/22 02:05:32;;;;;;;7.53;6.20;;;;;;;6.90;100.00;93272.47;5131615;27;20047;-71
2022/09/22 02:08:02;;;;;;;7.40;6.00;;;;;;;6.85;100.00;93269.66;5131548;27;20039;-71
2022/09/22 02:10:35;;;;;;;7.43;6.65;;;;;;;6.66;100.00;93270.09;5131782;27;20178;-71
2022/09/22 02:13:02;;;;;;;8.88;7.20;;;;;;;6.66;100.00;93269.31;5131733;27;20050;-71
2022/09/22 02:18:20;;;;;;;7.60;6.47;;;;;;;6.76;100.00;93276.66;5131297;27;20589;-71
2022/09/22 02:20:47;;;;;;;7.78;6.40;;;;;;;6.78;100.00;93269.59;5117032;27;20090;-71
2022/09/22 02:23:14;;;;;;;8.18;5.60;;;;;;;6.81;100.00;93282.78;5131665;27;20047;-71
2022/09/22 02:25:43;;;;;;;7.43;6.35;;;;;;;6.77;100.00;93276.47;5131098;27;20046;-71
2022/09/22 02:28:13;;;;;;;7.68;6.25;;;;;;;6.77;100.00;93284.13;5131313;27;20047;-71
2022/09/22 02:30:41;;;;;;;7.32;6.28;;;;;;;6.79;100.00;93281.41;5131325;27;20116;-71
2022/09/22 02:33:08;;;;;;;8.68;6.18;;;;;;;6.79;100.00;93276.28;5131345;27;20051;-70
2022/09/22 02:35:39;;;;;;;7.05;6.05;;;;;;;6.81;100.00;93282.78;5131125;27;20448;-70
2022/09/22 02:38:13;;;;;;;8.18;5.82;;;;;;;6.80;100.00;93275.31;5131238;27;20096;-70
2022/09/22 02:40:46;;;;;;;7.57;5.88;;;;;;;6.81;100.00;93282.78;5131308;27;20414;-70
2022/09/22 02:43:20;;;;;;;6.40;5.30;;;;;;;6.84;100.00;93281.63;5130857;27;20057;-70
2022/09/22 02:45:52;;;;;;;8.80;6.13;;;;;;;6.79;100.00;93283.94;5130756;27;20043;-71
2022/09/22 02:48:23;;;;;;;8.05;6.18;;;;;;;6.72;100.00;93288.22;5130946;27;20043;-70
2022/09/22 02:50:52;;;;;;;6.95;5.90;;;;;;;6.63;100.00;93278.13;5130994;27;20100;-71
2022/09/22 02:53:18;;;;;;;8.15;6.45;;;;;;;6.72;100.00;93290.78;5130515;27;20050;-71
2022/09/22 02:55:46;;;;;;;8.57;6.63;;;;;;;6.68;100.00;93288.56;5131027;27;20047;-71
2022/09/22 02:58:15;;;;;;;8.07;6.20;;;;;;;6.65;100.00;93283.03;5130294;27;20043;-71
2022/09/22 03:00:41;;;;;;;7.97;6.55;;;;;;;6.64;100.00;93279.72;5130625;27;20047;-71
2022/09/22 03:03:09;;;;;;;8.30;6.32;;;;;;;6.65;100.00;93288.94;5089492;28;20048;-71
2022/09/22 03:05:36;;;;;;;9.18;7.13;;;;;;;6.65;100.00;93285.59;5089539;28;20036;-71
2022/09/22 03:08:05;;;;;;;10.88;7.85;;;;;;;6.54;100.00;93269.81;5089701;28;20048;-72
2022/09/22 03:10:32;;;;;;;10.73;7.53;;;;;;;6.63;100.00;93275.56;5089232;28;20040;-72
2022/09/22 03:12:59;;;;;;;9.82;7.57;;;;;;;6.72;100.00;93286.47;5089723;28;20044;-72
2022/09/22 03:15:25;;;;;;;10.38;8.05;;;;;;;6.68;100.00;93280.13;5089693;28;20268;-72
2022/09/22 03:17:52;;;;;;;10.38;7.47;;;;;;;6.73;100.00;93277.03;5089234;28;20086;-72
2022/09/22 03:20:19;;;;;;;10.27;8.25;;;;;;;6.77;100.00;93286.69;5062796;28;20045;-71
2022/09/22 03:22:45;;;;;;;10.05;7.90;;;;;;;6.88;100.00;93292.25;5088488;28;20094;-72
2022/09/22 03:25:14;;;;;;;11.40;8.05;;;;;;;6.84;100.00;93291.84;5089454;28;20044;-71
2022/09/22 03:27:40;;;;;;;9.70;7.55;;;;;;;6.88;100.00;93287.16;5089285;28;20386;-71
2022/09/22 03:30:09;;;;;;;11.05;7.63;;;;;;;6.68;100.00;93264.81;5089491;28;20044;-72
2022/09/22 03:32:36;;;;;;;11.38;7.93;;;;;;;6.90;100.00;93287.78;5089355;28;20117;-72
2022/09/22 03:35:04;;;;;;;10.07;8.27;;;;;;;6.90;100.00;93293.66;5089238;28;20565;-72
2022/09/22 03:37:31;;;;;;;10.60;8.10;;;;;;;6.56;100.00;93290.03;5088785;28;20044;-71
2022/09/22 03:39:58;;;;;;;26.63;16.85;;;;;;;6.14;100.00;93298.28;5089402;28;20040;-71
2022/09/22 03:42:26;;;;;;;9.95;7.82;;;;;;;6.11;100.00;93296.06;5089264;28;20052;-71
2022/09/22 03:44:53;;;;;;;29.73;20.30;;;;;;;6.09;100.00;93284.47;5089127;28;20040;-71
2022/09/22 03:47:20;;;;;;;8.90;7.75;;;;;;;5.96;100.00;93290.97;5089114;28;20550;-71
2022/09/22 03:49:47;;;;;;;11.50;8.95;;;;;;;5.99;100.00;93298.28;5089254;28;20036;-71
2022/09/22 03:52:14;;;;;;;10.63;8.45;;;;;;;5.90;100.00;93291.69;5088926;28;20097;-71
2022/09/22 03:54:41;;;;;;;8.55;7.60;;;;;;;5.84;100.00;93295.75;5089247;28;20052;-71
2022/09/22 03:57:07;;;;;;;8.48;7.57;;;;;;;5.94;100.00;93304.88;5089000;28;20099;-70
2022/09/22 03:59:36;;;;;;;9.55;8.05;;;;;;;6.15;100.00;93299.06;5089197;28;20048;-70
2022/09/22 04:02:03;;;;;;;11.63;8.95;;;;;;;6.40;100.00;93298.72;5111916;28;20100;-71
2022/09/22 04:04:30;;;;;;;10.27;8.07;;;;;;;6.54;100.00;93302.97;5129920;28;20054;-71
2022/09/22 04:06:56;;;;;;;8.98;7.72;;;;;;;6.64;100.00;93302.69;5124572;28;20040;-71
2022/09/22 04:09:23;;;;;;;10.38;8.45;;;;;;;6.76;100.00;93302.97;5120806;28;20039;-72
2022/09/22 04:11:50;;;;;;;9.00;7.05;;;;;;;6.84;100.00;93296.97;5129434;28;20123;-71
2022/09/22 04:14:16;;;;;;;8.77;6.45;;;;;;;6.83;100.00;93303.03;5129860;28;20047;-71
2022/09/22 04:16:45;;;;;;;9.07;7.00;;;;;;;6.79;100.00;93305.19;5132316;27;20128;-71
2022/09/22 04:19:12;;;;;;;9.93;7.40;;;;;;;6.81;100.00;93308.31;5129530;27;20047;-71
2022/09/22 04:21:38;;;;;;;8.23;7.03;;;;;;;6.77;100.00;93314.00;5123921;27;20047;-71
2022/09/22 04:24:06;;;;;;;8.50;7.40;;;;;;;6.89;100.00;93309.97;5133801;27;20047;-71
2022/09/22 04:26:33;;;;;;;9.93;8.00;;;;;;;6.85;100.00;93295.97;5133787;27;20039;-70
2022/09/22 04:29:00;;;;;;;11.95;7.97;;;;;;;6.94;100.00;93301.75;5133736;27;20045;-71
2022/09/22 04:31:26;;;;;;;8.73;7.50;;;;;;;7.08;100.00;93310.28;5133416;27;20638;-71
2022/09/22 04:33:54;;;;;;;10.32;7.68;;;;;;;7.16;100.00;93306.81;5133443;27;20047;-71
2022/09/22 04:36:21;;;;;;;10.27;7.45;;;;;;;7.09;100.00;93309.34;5133432;27;20035;-71
2022/09/22 04:38:48;;;;;;;8.30;6.80;;;;;;;7.11;100.00;93306.56;5133241;27;20543;-71
2022/09/22 04:41:14;;;;;;;9.73;6.90;;;;;;;7.25;100.00;93313.38;5133464;27;20039;-71
2022/09/22 04:43:41;;;;;;;8.20;6.40;;;;;;;7.25;100.00;93308.25;5133192;27;20543;-71
2022/09/22 04:46:09;;;;;;;7.78;6.25;;;;;;;7.37;100.00;93311.09;5133312;27;20096;-71
2022/09/22 04:48:36;;;;;;;8.27;6.70;;;;;;;7.46;100.00;93309.97;5133390;27;20046;-71
2022/09/22 04:51:04;;;;;;;9.02;6.45;;;;;;;7.61;100.00;93311.63;5133222;27;20039;-71
2022/09/22 04:53:30;;;;;;;9.18;6.97;;;;;;;7.68;100.00;93315.00;5132760;27;20047;-71
2022/09/22 04:55:57;;;;;;;13.18;7.65;;;;;;;7.72;100.00;93317.97;5132996;27;20495;-71
2022/09/22 04:58:24;;;;;;;11.65;7.13;;;;;;;7.68;100.00;93306.56;5133028;27;20088;-71
2022/09/22 05:00:54;;;;;;;10.73;7.32;;;;;;;7.73;100.00;93309.34;5133130;27;20523;-71
2022/09/22 05:03:21;;;;;;;12.32;7.90;;;;;;;7.68;100.00;93302.22;5132692;27;20072;-71
2022/09/22 05:05:48;;;;;;;12.05;8.50;;;;;;;7.67;100.00;93304.97;5132974;27;20051;-71
2022/09/22 05:08:16;;;;;;;10.20;7.30;;;;;;;7.64;100.00;93305.34;5133024;27;20047;-71
2022/09/22 05:10:44;;;;;;;23.27;15.98;;;;;;;7.68;100.00;93304.78;5132940;27;20046;-71
2022/09/22 05:13:12;;;;;;;560.22;337.77;;;;;;;7.67;100.00;93315.19;5132531;27;20093;-71
2022/09/22 05:15:39;;;;;;;208.93;107.30;;;;;;;7.65;100.00;93317.16;5132620;27;20051;-70
2022/09/22 05:18:06;;;;;;;87.88;48.22;;;;;;;7.63;100.00;93314.78;5132849;27;20448;-70
2022/09/22 05:20:33;;;;;;;59.58;35.25;;;;;;;7.62;100.00;93316.56;5117959;27;20074;-70
2022/09/22 05:22:59;;;;;;;55.63;30.42;;;;;;;7.56;100.00;93316.50;5132501;27;20043;-70
2022/09/22 05:25:27;;;;;;;40.15;24.95;;;;;;;7.53;100.00;93311.75;5132820;27;20050;-70
2022/09/22 05:27:56;;;;;;;29.15;18.73;;;;;;;7.54;100.00;93316.69;5130858;27;20552;-70
2022/09/22 05:30:25;;;;;;;28.70;17.52;;;;;;;7.57;100.00;93320.63;5132831;27;20053;-70
2022/09/22 05:32:52;;;;;;;23.48;14.15;;;;;;;7.45;100.00;93305.06;5132190;27;20104;-70
2022/09/22 05:35:20;;;;;;;21.15;13.57;;;;;;;7.60;100.00;93323.59;5132438;27;20054;-70
2022/09/22 05:37:49;;;;;;;22.15;13.27;;;;;;;7.62;100.00;93316.56;5131919;27;20487;-71
2022/09/22 05:40:17;;;;;;;85.30;42.05;;;;;;;7.67;100.00;93325.41;5132378;27;20043;-71
2022/09/22 05:42:47;;;;;;;235.55;110.90;;;;;;;7.61;100.00;93312.44;5132205;27;20468;-71
2022/09/22 05:45:14;;;;;;;240.80;106.55;;;;;;;7.72;100.00;93325.63;5132235;27;20186;-71
2022/09/22 05:47:41;;;;;;;227.20;94.25;;;;;;;7.75;100.00;93326.06;5131853;27;20043;-72
2022/09/22 05:50:09;;;;;;;209.18;87.45;;;;;;;7.80;100.00;93328.06;5132189;27;20043;-72
2022/09/22 05:52:36;;;;;;;283.85;99.97;;;;;;;7.80;100.00;93325.50;5132052;27;20051;-71
2022/09/22 05:55:03;;;;;;;131.15;48.95;;;;;;;7.80;100.00;93324.69;5132097;27;20035;-71
2022/09/22 05:57:31;;;;;;;63.05;28.50;;;;;;;7.84;100.00;93320.78;5131811;27;20058;-71
2022/09/22 05:59:59;;;;;;;42.55;22.95;;;;;;;7.84;100.00;93326.69;5131963;27;20047;-72
2022/09/22 06:02:26;;;;;;;34.78;17.75;;;;;;;7.85;100.00;93325.72;5131875;27;20503;-71
2022/09/22 06:04:53;;;;;;;32.50;16.63;;;;;;;7.84;100.00;93328.47;5131319;27;20067;-71
2022/09/22 06:07:21;;;;;;;28.80;18.38;;;;;;;7.82;100.00;93330.44;5131572;27;20039;-72
2022/09/22 06:10:09;;;;;;;23.75;15.82;;;;;;;7.92;100.00;93330.06;5131381;27;20495;-72
2022/09/22 06:12:35;;;;;;;23.85;15.68;;;;;;;7.95;100.00;93327.13;5131420;27;20053;-71
2022/09/22 06:15:04;;;;;;;22.65;14.73;;;;;;;8.00;100.00;93324.78;5131556;27;20453;-70
2022/09/22 06:17:31;;;;;;;22.52;13.82;;;;;;;8.06;100.00;93336.03;5131419;27;20039;-71
2022/09/22 06:19:59;;;;;;;21.63;15.00;;;;;;;8.08;100.00;93329.75;5120914;27;20556;-71
2022/09/22 06:22:26;;;;;;;24.40;17.83;;;;;;;8.15;100.00;93328.00;5128145;27;20127;-71
2022/09/22 06:24:53;;;;;;;15.98;12.52;;;;;;;8.22;100.00;93329.78;5131397;27;20043;-71
2022/09/22 06:27:20;;;;;;;20.92;15.82;;;;;;;8.23;100.00;93329.59;5131037;27;20047;-71
2022/09/22 06:29:46;;;;;;;14.60;11.52;;;;;;;8.45;100.00;93329.47;5131386;27;20054;-71
2022/09/22 06:32:14;;;;;;;6.13;5.32;;;;;;;8.29;100.00;93328.81;5130947;27;20555;-71
2022/09/22 06:34:43;;;;;;;6.88;5.55;;;;;;;8.34;100.00;93333.38;5130829;27;20099;-72
2022/09/22 06:37:11;;;;;;;5.90;4.78;;;;;;;8.28;100.00;93329.00;5130982;27;20047;-72
2022/09/22 06:39:38;;;;;;;6.55;5.50;;;;;;;8.49;100.00;93328.09;5114972;27;20051;-71
2022/09/22 06:42:05;;;;;;;6.38;4.70;;;;;;;8.38;100.00;93329.44;5100188;28;20466;-72
2022/09/22 06:44:32;;;;;;;6.28;5.15;;;;;;;8.66;100.00;93327.78;5128702;27;20077;-72
2022/09/22 06:46:58;;;;;;;6.75;4.75;;;;;;;8.79;100.00;93332.91;5130623;27;20058;-72
2022/09/22 06:49:26;;;;;;;6.45;5.05;;;;;;;9.06;100.00;93319.31;5130600;27;20053;-72
2022/09/22 06:51:53;;;;;;;5.78;4.70;;;;;;;9.21;100.00;93322.47;5130670;27;20099;-72
2022/09/22 06:54:20;;;;;;;7.10;5.10;;;;;;;9.27;100.00;93326.03;5130566;27;20456;-72
2022/09/22 06:56:47;;;;;;;7.85;4.82;;;;;;;9.39;100.00;93328.00;5130482;27;20051;-72
2022/09/22 06:59:15;;;;;;;5.78;4.45;;;;;;;9.16;100.00;93331.75;5130528;27;20043;-71
2022/09/22 07:01:43;;;;;;;8.88;4.35;;;;;;;8.95;100.00;93333.53;5130296;27;20058;-71
2022/09/22 07:04:11;;;;;;;4.97;4.22;;;;;;;8.87;100.00;93321.69;5112033;27;20530;-72
2022/09/22 07:06:41;;;;;;;5.18;4.15;;;;;;;9.14;100.00;93328.59;5108884;27;20047;-71
2022/09/22 07:09:09;;;;;;;6.00;4.60;;;;;;;9.16;100.00;93332.53;5089466;28;20073;-71
2022/09/22 07:11:36;;;;;;;4.75;3.83;;;;;;;8.89;100.00;93335.09;5123867;27;20057;-72
2022/09/22 07:14:03;;;;;;;5.32;4.25;;;;;;;9.05;100.00;93328.81;5114650;27;20924;-72
2022/09/22 07:16:29;;;;;;;6.30;5.05;;;;;;;9.20;100.00;93330.34;5112764;27;20043;-71
2022/09/22 07:18:58;;;;;;;8.40;4.80;;;;;;;9.27;100.00;93330.38;5128276;27;20051;-72
2022/09/22 07:21:26;;;;;;;5.85;4.28;;;;;;;9.28;100.00;93326.81;5096979;27;20430;-72
2022/09/22 07:23:56;;;;;;;5.47;4.40;;;;;;;9.42;100.00;93325.81;5089265;28;20055;-72
2022/09/22 07:26:25;;;;;;;5.28;4.40;;;;;;;9.62;100.00;93325.78;5089186;28;20097;-72
2022/09/22 07:28:53;;;;;;;6.20;4.35;;;;;;;9.51;100.00;93328.16;5089016;28;20100;-72
2022/09/22 07:31:21;;;;;;;6.63;4.05;;;;;;;9.66;100.00;93333.06;5090631;28;20437;-71
2022/09/22 07:33:47;;;;;;;5.43;4.03;;;;;;;9.29;100.00;93321.50;5094091;28;20047;-71
2022/09/22 07:36:17;;;;;;;6.47;4.82;;;;;;;9.55;100.00;93331.91;5090957;28;20104;-72
2022/09/22 07:38:48;;;;;;;5.50;4.70;;;;;;;9.66;100.00;93326.16;5101002;28;20097;-72
2022/09/22 07:41:18;;;;;;;5.00;3.58;;;;;;;9.36;100.00;93329.97;5100156;28;20070;-71
2022/09/22 07:43:46;;;;;;;5.68;4.70;;;;;;;9.56;100.00;93333.47;5090025;28;20044;-72
2022/09/22 07:46:13;;;;;;;4.80;4.10;;;;;;;9.43;100.00;93332.53;5107771;28;20047;-72
2022/09/22 07:48:42;;;;;;;4.90;3.90;;;;;;;9.55;100.00;93335.28;5114231;28;20040;-72
2022/09/22 07:51:11;;;;;;;5.38;4.20;;;;;;;9.63;100.00;93336.84;5114528;27;20403;-72
2022/09/22 07:53:40;;;;;;;5.22;3.95;;;;;;;9.66;100.00;93331.31;5108055;27;20101;-72
2022/09/22 07:56:11;;;;;;;6.95;6.25;;;;;;;9.53;100.00;93339.81;5112312;27;20044;-72
2022/09/22 07:58:43;;;;;;;9.07;7.97;;;;;;;9.74;100.00;93327.72;5131274;27;20053;-71
2022/09/22 08:01:10;;;;;;;5.85;4.72;;;;;;;10.02;100.00;93336.94;5126912;27;20396;-71
2022/09/22 08:03:37;;;;;;;4.50;4.03;;;;;;;10.18;100.00;93338.25;5120616;27;20408;-72
2022/09/22 08:06:09;;;;;;;4.03;3.53;;;;;;;10.38;100.00;93339.97;5096526;28;20073;-72
2022/09/22 08:08:41;;;;;;;5.80;4.00;;;;;;;10.59;99.02;93340.69;5103770;28;20564;-71
2022/09/22 08:11:10;;;;;;;6.82;4.75;;;;;;;10.50;99.72;93330.63;5118768;27;20043;-71
2022/09/22 08:13:37;;;;;;;7.13;5.25;;;;;;;10.67;97.44;93343.78;5124679;27;20044;-71
2022/09/22 08:16:06;;;;;;;6.28;4.40;;;;;;;10.58;97.22;93345.03;5102893;27;20036;-71
2022/09/22 08:18:34;;;;;;;6.05;3.90;;;;;;;10.51;96.97;93331.44;5098474;27;20039;-72
2022/09/22 08:21:02;;;;;;;3.83;3.00;;;;;;;10.61;97.38;93339.47;5115275;27;20086;-72
2022/09/22 08:23:30;;;;;;;4.47;3.45;;;;;;;10.59;96.27;93336.31;5132187;27;20130;-72
2022/09/22 08:25:57;;;;;;;5.88;4.55;;;;;;;10.78;94.56;93334.63;5133631;27;20158;-71
2022/09/22 08:28:24;;;;;;;4.00;3.00;;;;;;;10.67;93.22;93327.56;5133393;27;20105;-72
2022/09/22 08:30:50;;;;;;;4.93;3.72;;;;;;;10.89;94.84;93330.63;5133305;27;20115;-71
2022/09/22 08:33:18;;;;;;;4.15;3.38;;;;;;;10.92;93.93;93335.31;5133255;27;20039;-72
2022/09/22 08:35:53;;;;;;;4.47;3.10;;;;;;;11.10;93.07;93338.94;5133012;27;20120;-72
2022/09/22 08:38:22;;;;;;;4.82;2.90;;;;;;;11.44;93.72;93336.13;5133511;27;20057;-71
2022/09/22 08:40:59;;;;;;;5.20;3.88;;;;;;;11.78;86.14;93336.59;5133179;27;20078;-71
2022/09/22 08:43:26;;;;;;;8.43;5.80;;;;;;;11.95;87.17;93329.06;5133400;27;20122;-72
2022/09/22 08:45:53;;;;;;;5.82;2.70;;;;;;;12.19;82.77;93331.03;5133221;27;20047;-72
2022/09/22 08:54:12;;;;;;;4.57;2.30;;;;;;;13.51;79.52;93329.63;5029315;28;20509;-71
2022/09/22 08:56:44;;;;;;;3.38;2.35;;;;;;;13.26;77.07;93340.88;5047667;28;20041;-72
2022/09/22 08:59:17;;;;;;;3.80;2.40;;;;;;;12.56;78.86;93339.47;5088422;27;20092;-72
2022/09/22 09:02:02;;;;;;;3.38;2.60;;;;;;;12.30;80.44;93340.59;5132571;27;20100;-72
2022/09/22 09:05:06;;;;;;;5.28;3.63;;;;;;;12.07;84.06;93329.19;5132735;27;20047;-72
2022/09/22 09:07:44;;;;;;;4.20;2.85;;;;;;;12.41;81.09;93331.38;5106073;27;21155;-72
2022/09/22 09:10:27;;;;;;;3.85;2.60;;;;;;;12.32;79.87;93330.09;5131620;27;20039;-72
2022/09/22 09:13:10;;;;;;;3.05;2.05;;;;;;;11.66;81.05;93333.16;5125201;27;20107;-72
2022/09/22 09:15:55;;;;;;;3.53;2.60;;;;;;;11.62;84.11;93292.41;5132791;27;20043;-72
2022/09/22 09:18:28;;;;;;;3.55;2.22;;;;;;;11.71;82.36;93325.59;5132410;27;20080;-72
2022/09/22 09:20:58;;;;;;;5.10;2.50;;;;;;;11.28;82.27;93327.16;5110881;27;20042;-72
2022/09/22 09:23:35;;;;;;;4.35;2.17;;;;;;;11.38;81.39;93308.69;5132378;27;20039;-72
2022/09/22 09:26:03;;;;;;;2.95;2.10;;;;;;;11.89;83.65;93311.91;5100582;28;20101;-72
2022/09/22 09:28:34;;;;;;;2.63;1.90;;;;;;;12.33;79.75;93311.06;5124554;27;20456;-72
2022/09/22 09:31:08;;;;;;;2.92;1.70;;;;;;;12.71;77.54;93312.53;5099550;27;20044;-71
2022/09/22 09:33:44;;;;;;;2.47;1.67;;;;;;;12.14;76.08;93311.88;5091042;28;20102;-72
2022/09/22 09:36:15;;;;;;;4.30;2.55;;;;;;;12.50;78.91;93306.88;5090667;28;20093;-71
2022/09/22 09:38:52;;;;;;;3.50;2.08;;;;;;;12.41;75.90;93313.34;5099373;28;20048;-73
2022/09/22 09:41:23;;;;;;;3.70;2.45;;;;;;;12.59;75.05;93315.06;5091398;28;20537;-72
2022/09/22 09:43:53;;;;;;;5.47;2.45;;;;;;;12.45;74.05;93322.19;5091566;28;20101;-72
2022/09/22 09:46:36;;;;;;;3.50;2.20;;;;;;;12.39;74.11;93315.34;5091709;28;20044;-72
2022/09/22 09:49:13;;;;;;;9.10;4.40;;;;;;;12.66;75.49;93317.56;5094649;28;20083;-72
2022/09/22 09:51:42;;;;;;;;;;;;;;;12.66;70.21;93318.38;5091982;28;20617;-72
2022/09/22 09:54:13;;;;;;;6.18;2.97;;;;;;;12.99;72.31;93320.66;5114726;27;19930;-72
2022/09/22 09:57:01;;;;;;;2.10;1.50;;;;;;;12.77;70.23;93308.31;5132544;27;20061;-72
2022/09/22 10:02:15;;;;;;;6.47;2.72;;;;;;;13.99;73.44;93296.78;5131668;27;20139;-72
2022/09/22 10:04:50;;;;;;;3.90;1.80;;;;;;;14.44;67.72;93308.19;5131991;27;20047;-72
2022/09/22 10:07:20;;;;;;;3.53;2.03;;;;;;;14.90;65.55;93310.06;5132039;27;20043;-72
2022/09/22 10:09:50;;;;;;;3.03;1.52;;;;;;;15.42;65.04;93314.19;5131580;27;20126;-72
2022/09/22 10:12:26;;;;;;;1.90;1.20;;;;;;;14.72;61.78;93282.59;5103641;27;20088;-72
2022/09/22 10:14:55;;;;;;;1.90;1.08;;;;;;;14.40;65.54;93307.13;5098870;27;20050;-72
2022/09/22 10:17:24;;;;;;;2.30;1.38;;;;;;;14.30;66.57;93308.50;5131503;27;20532;-72
2022/09/22 10:19:50;;;;;;;3.72;1.70;;;;;;;14.35;63.16;93309.59;5117447;27;20043;-72
2022/09/22 10:22:28;;;;;;;3.10;1.83;;;;;;;14.61;65.08;93310.84;5114964;27;20066;-72
2022/09/22 10:25:00;;;;;;;1.65;0.95;;;;;;;14.65;60.56;93319.72;5129637;27;20084;-72
2022/09/22 10:27:29;;;;;;;2.05;1.20;;;;;;;14.02;62.63;93310.03;5102848;27;20604;-72
2022/09/22 10:30:21;;;;;;;2.85;2.05;;;;;;;14.42;65.95;93307.66;5090433;28;20048;-72
2022/09/22 10:33:16;;;;;;;2.53;1.30;;;;;;;14.46;63.44;93308.78;5095458;27;20477;-72
2022/09/22 10:35:46;;;;;;;3.10;1.92;;;;;;;14.17;62.80;93264.84;5095479;27;20051;-72
2022/09/22 10:38:21;;;;;;;3.17;1.77;;;;;;;14.80;65.44;93295.16;5119778;27;20108;-72
2022/09/22 10:40:56;;;;;;;2.30;1.48;;;;;;;15.02;62.81;93294.47;5103777;27;20495;-72
2022/09/22 10:43:45;;;;;;;2.25;1.20;;;;;;;13.82;61.04;93302.66;5101391;27;20051;-72
2022/09/22 10:46:36;;;;;;;2.20;1.10;;;;;;;13.83;64.28;93304.22;5121620;27;20047;-72
2022/09/22 10:49:10;;;;;;;3.45;1.38;;;;;;;13.66;66.32;93295.59;5130952;27;20047;-72
2022/09/22 10:52:00;;;;;;;2.65;1.33;;;;;;;13.68;69.03;93293.56;5129992;27;20544;-72
2022/09/22 10:54:50;;;;;;;3.88;1.60;;;;;;;13.74;68.00;93290.88;5130842;27;20051;-72
2022/09/22 10:57:38;;;;;;;4.38;1.63;;;;;;;13.97;67.39;93294.44;5103745;27;20127;-72
2022/09/22 11:00:14;;;;;;;3.58;1.60;;;;;;;14.15;66.76;93290.09;5110858;27;20491;-72
2022/09/22 11:03:14;;;;;;;3.75;1.92;;;;;;;14.31;66.20;93286.03;5120657;27;20505;-72
2022/09/22 11:14:43;;;;;;;5.43;2.95;;;;;;;14.78;62.68;93287.66;5105599;27;20046;-72
2022/09/22 11:17:19;;;;;;;3.38;1.75;;;;;;;14.99;62.15;93285.38;5130415;27;20100;-72
2022/09/22 11:20:15;;;;;;;2.20;1.27;;;;;;;14.64;59.86;93278.56;5115389;27;20051;-72
2022/09/22 11:23:12;;;;;;;5.50;2.95;;;;;;;14.78;61.92;93279.88;5105380;28;20499;-72
2022/09/22 11:25:56;;;;;;;3.33;1.45;;;;;;;14.70;62.20;93272.47;5105572;27;20613;-71
2022/09/22 11:28:39;;;;;;;3.80;1.67;;;;;;;14.41;62.20;93270.69;5130029;27;20051;-71
2022/09/22 11:31:10;;;;;;;4.07;2.15;;;;;;;13.98;62.55;93274.56;5129880;27;20407;-71
2022/09/22 11:33:59;;;;;;;5.05;2.13;;;;;;;13.57;63.73;93277.09;5095019;28;20454;-72
2022/09/22 11:36:40;;;;;;;3.55;1.63;;;;;;;13.32;62.15;93271.13;5087854;28;20040;-71
2022/09/22 11:39:30;;;;;;;1.80;1.15;;;;;;;13.25;63.79;93259.34;5093333;28;20036;-71
2022/09/22 11:42:12;;;;;;;4.75;3.35;;;;;;;12.97;60.70;93274.50;5089077;28;20048;-71
2022/09/22 11:44:42;;;;;;;2.72;1.70;;;;;;;12.90;60.46;93269.44;5127157;27;20044;-71
2022/09/22 11:47:40;;;;;;;3.25;1.67;;;;;;;13.04;62.92;93261.47;5113826;28;20071;-71
2022/09/22 11:50:43;;;;;;;6.60;4.28;;;;;;;12.83;63.95;93261.78;5106046;28;20589;-72
2022/09/22 11:53:34;;;;;;;3.08;2.22;;;;;;;12.72;64.49;93223.13;5094661;28;20514;-72
2022/09/22 11:56:31;;;;;;;2.97;1.90;;;;;;;13.12;63.73;93250.03;5095438;28;20043;-71
2022/09/22 11:59:02;;;;;;;1.60;0.95;;;;;;;12.79;62.55;93249.56;5096486;28;20616;-72
2022/09/22 12:01:36;;;;;;;1.95;1.05;;;;;;;12.74;64.16;93252.84;5095152;28;20043;-72
2022/09/22 12:04:10;;;;;;;2.97;1.60;;;;;;;12.85;65.81;93233.22;5109534;28;20053;-71
2022/09/22 12:06:42;;;;;;;3.72;1.60;;;;;;;12.96;62.99;93247.13;5113780;28;20449;-71
2022/09/22 12:09:19;;;;;;;2.50;1.17;;;;;;;12.93;64.21;93242.41;5112911;28;20044;-72